sensor_id;sensor_type;location;lat;lon;timestamp;pressure;altitude;pressure_sealevel;temperature;humidity
42385;BME280;28042;43.986;22.860;2023-07-13T00:02:06;100977.66;;;24.56;100.00
42385;BME280;28042;43.986;22.860;2023-07-13T00:04:31;100944.00;;;24.42;100.00
42385;BME280;28042;43.986;22.860;2023-07-13T00:06:57;100942.63;;;24.34;100.00
42385;BME280;28042;43.986;22.860;2023-07-13T00:09:22;100974.38;;;24.38;100.00
42385;BME280;28042;43.986;22.860;2023-07-13T00:11:55;100972.13;;;24.40;100.00
42385;BME280;28042;43.986;22.860;2023-07-13T00:14:22;100962.63;;;24.46;100.00
42385;BME280;28042;43.986;22.860;2023-07-13T00:16:48;100942.28;;;24.41;100.00
42385;BME280;28042;43.986;22.860;2023-07-13T00:19:14;100938.94;;;24.44;100.00
42385;BME280;28042;43.986;22.860;2023-07-13T00:21:40;100963.44;;;24.57;100.00
42385;BME280;28042;43.986;22.860;2023-07-13T00:24:07;100947.03;;;24.45;100.00
42385;BME280;28042;43.986;22.860;2023-07-13T00:26:34;100969.34;;;24.50;100.00
42385;BME280;28042;43.986;22.860;2023-07-13T00:28:59;100952.63;;;24.30;100.00
42385;BME280;28042;43.986;22.860;2023-07-13T00:31:25;100980.50;;;24.50;100.00
42385;BME280;28042;43.986;22.860;2023-07-13T00:33:51;100968.75;;;24.48;100.00
42385;BME280;28042;43.986;22.860;2023-07-13T00:36:16;100973.53;;;24.43;100.00
42385;BME280;28042;43.986;22.860;2023-07-13T00:38:42;100950.69;;;24.36;100.00
42385;BME280;28042;43.986;22.860;2023-07-13T00:41:09;100937.00;;;24.29;100.00
42385;BME280;28042;43.986;22.860;2023-07-13T00:43:35;100959.31;;;24.44;100.00
42385;BME280;28042;43.986;22.860;2023-07-13T00:46:33;100964.31;;;24.52;100.00
42385;BME280;28042;43.986;22.860;2023-07-13T00:49:02;100959.53;;;24.58;100.00
42385;BME280;28042;43.986;22.860;2023-07-13T00:51:49;100959.50;;;24.68;100.00
42385;BME280;28042;43.986;22.860;2023-07-13T00:54:22;100965.34;;;24.72;100.00
42385;BME280;28042;43.986;22.860;2023-07-13T00:56:51;100959.75;;;24.67;100.00
42385;BME280;28042;43.986;22.860;2023-07-13T00:59:18;100959.75;;;24.72;100.00
42385;BME280;28042;43.986;22.860;2023-07-13T01:01:45;100955.31;;;24.66;100.00
42385;BME280;28042;43.986;22.860;2023-07-13T01:04:11;100959.22;;;24.70;100.00
42385;BME280;28042;43.986;22.860;2023-07-13T01:06:37;100933.56;;;24.63;100.00
42385;BME280;28042;43.986;22.860;2023-07-13T01:09:05;100954.72;;;24.74;100.00
42385;BME280;28042;43.986;22.860;2023-07-13T01:11:31;100932.19;;;24.55;100.00
42385;BME280;28042;43.986;22.860;2023-07-13T01:13:57;100951.13;;;24.63;100.00
42385;BME280;28042;43.986;22.860;2023-07-13T01:16:27;100969.59;;;24.59;100.00
42385;BME280;28042;43.986;22.860;2023-07-13T01:18:55;100964.84;;;24.55;100.00
42385;BME280;28042;43.986;22.860;2023-07-13T01:21:26;100953.44;;;24.51;100.00
42385;BME280;28042;43.986;22.860;2023-07-13T01:23:52;100940.38;;;24.36;100.00
42385;BME280;28042;43.986;22.860;2023-07-13T01:26:17;100963.47;;;24.47;100.00
42385;BME280;28042;43.986;22.860;2023-07-13T01:28:43;100940.94;;;24.33;100.00
42385;BME280;28042;43.986;22.860;2023-07-13T01:31:09;100948.16;;;24.29;100.00
42385;BME280;28042;43.986;22.860;2023-07-13T01:33:37;100946.53;;;24.13;100.00
42385;BME280;28042;43.986;22.860;2023-07-13T01:36:03;100939.84;;;24.09;100.00
42385;BME280;28042;43.986;22.860;2023-07-13T01:38:29;100961.56;;;24.22;100.00
42385;BME280;28042;43.986;22.860;2023-07-13T01:40:54;100952.09;;;24.18;100.00
42385;BME280;28042;43.986;22.860;2023-07-13T01:43:20;100938.75;;;24.05;100.00
42385;BME280;28042;43.986;22.860;2023-07-13T01:45:46;100934.31;;;23.93;100.00
42385;BME280;28042;43.986;22.860;2023-07-13T01:48:12;100927.91;;;23.78;100.00
42385;BME280;28042;43.986;22.860;2023-07-13T01:50:38;100929.03;;;23.61;100.00
42385;BME280;28042;43.986;22.860;2023-07-13T01:53:04;100956.63;;;23.68;100.00
42385;BME280;28042;43.986;22.860;2023-07-13T01:55:31;100958.84;;;23.66;100.00
42385;BME280;28042;43.986;22.860;2023-07-13T01:57:57;100950.78;;;23.64;100.00
42385;BME280;28042;43.986;22.860;2023-07-13T02:00:23;100931.81;;;23.46;100.00
42385;BME280;28042;43.986;22.860;2023-07-13T02:02:49;100947.97;;;23.49;100.00
42385;BME280;28042;43.986;22.860;2023-07-13T02:05:15;100956.59;;;23.48;100.00
42385;BME280;28042;43.986;22.860;2023-07-13T02:07:41;100965.50;;;23.50;100.00
42385;BME280;28042;43.986;22.860;2023-07-13T02:10:08;100949.63;;;23.30;100.00
42385;BME280;28042;43.986;22.860;2023-07-13T02:12:34;100951.56;;;23.34;100.00
42385;BME280;28042;43.986;22.860;2023-07-13T02:15:00;100959.06;;;23.24;100.00
42385;BME280;28042;43.986;22.860;2023-07-13T02:17:26;100950.41;;;23.15;100.00
42385;BME280;28042;43.986;22.860;2023-07-13T02:19:52;100944.31;;;23.13;100.00
42385;BME280;28042;43.986;22.860;2023-07-13T02:22:18;100974.38;;;23.21;100.00
42385;BME280;28042;43.986;22.860;2023-07-13T02:24:44;100942.88;;;23.10;100.00
42385;BME280;28042;43.986;22.860;2023-07-13T02:27:09;100980.50;;;23.23;100.00
42385;BME280;28042;43.986;22.860;2023-07-13T02:29:35;100960.16;;;23.12;100.00
42385;BME280;28042;43.986;22.860;2023-07-13T02:32:00;100948.72;;;23.09;100.00
42385;BME280;28042;43.986;22.860;2023-07-13T02:34:26;100987.19;;;23.22;100.00
42385;BME280;28042;43.986;22.860;2023-07-13T02:36:51;100956.53;;;23.07;100.00
42385;BME280;28042;43.986;22.860;2023-07-13T02:39:16;100974.91;;;23.18;100.00
42385;BME280;28042;43.986;22.860;2023-07-13T02:41:42;100976.06;;;23.22;100.00
42385;BME280;28042;43.986;22.860;2023-07-13T02:44:07;100959.34;;;23.12;100.00
42385;BME280;28042;43.986;22.860;2023-07-13T02:46:34;100967.09;;;23.10;100.00
42385;BME280;28042;43.986;22.860;2023-07-13T02:49:01;100969.31;;;23.08;100.00
42385;BME280;28042;43.986;22.860;2023-07-13T02:51:26;100968.22;;;23.04;100.00
42385;BME280;28042;43.986;22.860;2023-07-13T02:53:52;100977.69;;;23.13;100.00
42385;BME280;28042;43.986;22.860;2023-07-13T02:56:24;100982.97;;;23.09;100.00
42385;BME280;28042;43.986;22.860;2023-07-13T02:58:49;100990.50;;;23.14;100.00
42385;BME280;28042;43.986;22.860;2023-07-13T03:01:15;100973.22;;;23.07;100.00
42385;BME280;28042;43.986;22.860;2023-07-13T03:03:45;101002.75;;;23.18;100.00
42385;BME280;28042;43.986;22.860;2023-07-13T03:06:11;101002.22;;;23.21;100.00
42385;BME280;28042;43.986;22.860;2023-07-13T03:08:38;100996.06;;;23.19;100.00
42385;BME280;28042;43.986;22.860;2023-07-13T03:11:14;101004.16;;;23.26;100.00
42385;BME280;28042;43.986;22.860;2023-07-13T03:13:41;100988.88;;;23.28;100.00
42385;BME280;28042;43.986;22.860;2023-07-13T03:16:08;100981.88;;;23.16;100.00
42385;BME280;28042;43.986;22.860;2023-07-13T03:18:33;100975.22;;;23.22;100.00
42385;BME280;28042;43.986;22.860;2023-07-13T03:20:59;100977.16;;;23.11;100.00
42385;BME280;28042;43.986;22.860;2023-07-13T03:23:25;100975.44;;;23.05;100.00
42385;BME280;28042;43.986;22.860;2023-07-13T03:26:01;101009.19;;;23.29;100.00
42385;BME280;28042;43.986;22.860;2023-07-13T03:28:26;101000.25;;;23.17;100.00
42385;BME280;28042;43.986;22.860;2023-07-13T03:31:06;100974.34;;;23.06;100.00
42385;BME280;28042;43.986;22.860;2023-07-13T03:33:31;100992.22;;;23.35;100.00
42385;BME280;28042;43.986;22.860;2023-07-13T03:35:57;100972.72;;;23.40;100.00
42385;BME280;28042;43.986;22.860;2023-07-13T03:38:22;100983.63;;;23.67;100.00
42385;BME280;28042;43.986;22.860;2023-07-13T03:40:48;100963.31;;;23.82;100.00
42385;BME280;28042;43.986;22.860;2023-07-13T03:43:14;100982.47;;;24.30;100.00
42385;BME280;28042;43.986;22.860;2023-07-13T03:45:39;100953.69;;;24.55;100.00
42385;BME280;28042;43.986;22.860;2023-07-13T03:48:05;100982.44;;;25.20;100.00
42385;BME280;28042;43.986;22.860;2023-07-13T03:50:31;100978.78;;;25.58;100.00
42385;BME280;28042;43.986;22.860;2023-07-13T03:52:57;100956.22;;;25.89;100.00
42385;BME280;28042;43.986;22.860;2023-07-13T03:55:23;100982.25;;;26.42;100.00
42385;BME280;28042;43.986;22.860;2023-07-13T03:57:59;100978.19;;;26.77;98.17
42385;BME280;28042;43.986;22.860;2023-07-13T04:00:24;100956.00;;;27.05;94.79
42385;BME280;28042;43.986;22.860;2023-07-13T04:02:51;100954.84;;;27.44;90.22
42385;BME280;28042;43.986;22.860;2023-07-13T04:05:16;100960.59;;;27.71;87.34
42385;BME280;28042;43.986;22.860;2023-07-13T04:07:42;100967.00;;;27.91;84.40
42385;BME280;28042;43.986;22.860;2023-07-13T04:10:07;100979.56;;;28.39;82.16
42385;BME280;28042;43.986;22.860;2023-07-13T04:12:33;100956.94;;;28.50;80.99
42385;BME280;28042;43.986;22.860;2023-07-13T04:14:58;100951.50;;;28.94;78.14
42385;BME280;28042;43.986;22.860;2023-07-13T04:17:24;100951.03;;;29.15;77.55
42385;BME280;28042;43.986;22.860;2023-07-13T04:19:49;100941.50;;;29.02;77.05
42385;BME280;28042;43.986;22.860;2023-07-13T04:22:15;100969.22;;;29.53;74.99
42385;BME280;28042;43.986;22.860;2023-07-13T04:24:40;100983.69;;;29.61;74.52
42385;BME280;28042;43.986;22.860;2023-07-13T04:27:06;100995.72;;;29.97;71.50
42385;BME280;28042;43.986;22.860;2023-07-13T04:29:32;101001.78;;;30.13;69.86
42385;BME280;28042;43.986;22.860;2023-07-13T04:31:57;100978.06;;;29.83;70.28
42385;BME280;28042;43.986;22.860;2023-07-13T04:34:23;100988.78;;;30.03;69.98
42385;BME280;28042;43.986;22.860;2023-07-13T04:36:49;100964.84;;;30.46;67.99
42385;BME280;28042;43.986;22.860;2023-07-13T04:39:15;100984.91;;;31.01;65.47
42385;BME280;28042;43.986;22.860;2023-07-13T04:41:41;100979.97;;;31.15;63.92
42385;BME280;28042;43.986;22.860;2023-07-13T04:44:06;100979.66;;;31.17;62.69
42385;BME280;28042;43.986;22.860;2023-07-13T04:46:32;100987.41;;;30.94;63.40
42385;BME280;28042;43.986;22.860;2023-07-13T04:48:57;100982.91;;;30.76;63.81
42385;BME280;28042;43.986;22.860;2023-07-13T04:51:23;100977.00;;;31.03;63.30
42385;BME280;28042;43.986;22.860;2023-07-13T04:53:49;100993.53;;;30.96;64.12
42385;BME280;28042;43.986;22.860;2023-07-13T04:56:14;100996.28;;;31.36;63.27
42385;BME280;28042;43.986;22.860;2023-07-13T04:58:40;100990.78;;;32.00;61.02
42385;BME280;28042;43.986;22.860;2023-07-13T05:01:06;101000.03;;;32.35;60.26
42385;BME280;28042;43.986;22.860;2023-07-13T05:03:32;101006.66;;;32.77;58.41
42385;BME280;28042;43.986;22.860;2023-07-13T05:06:03;100986.75;;;33.03;57.33
42385;BME280;28042;43.986;22.860;2023-07-13T05:08:29;101004.00;;;33.31;56.64
42385;BME280;28042;43.986;22.860;2023-07-13T05:10:55;100984.56;;;33.51;56.84
42385;BME280;28042;43.986;22.860;2023-07-13T05:13:21;100995.66;;;33.97;56.80
42385;BME280;28042;43.986;22.860;2023-07-13T05:15:58;100983.63;;;34.00;57.57
42385;BME280;28042;43.986;22.860;2023-07-13T05:18:24;101012.50;;;34.27;56.55
42385;BME280;28042;43.986;22.860;2023-07-13T05:23:24;101010.44;;;34.73;55.07
42385;BME280;28042;43.986;22.860;2023-07-13T05:25:50;100989.56;;;34.20;57.39
42385;BME280;28042;43.986;22.860;2023-07-13T05:28:15;101011.50;;;33.57;61.18
42385;BME280;28042;43.986;22.860;2023-07-13T05:30:45;101016.50;;;34.26;60.07
42385;BME280;28042;43.986;22.860;2023-07-13T05:33:11;101004.78;;;34.61;59.04
42385;BME280;28042;43.986;22.860;2023-07-13T05:35:37;101011.56;;;34.93;57.24
42385;BME280;28042;43.986;22.860;2023-07-13T05:38:02;100989.53;;;34.65;57.41
42385;BME280;28042;43.986;22.860;2023-07-13T05:40:28;100986.72;;;35.02;56.73
42385;BME280;28042;43.986;22.860;2023-07-13T05:42:53;101012.34;;;34.81;56.31
42385;BME280;28042;43.986;22.860;2023-07-13T05:45:19;101014.59;;;34.75;56.37
42385;BME280;28042;43.986;22.860;2023-07-13T05:47:44;100990.84;;;34.80;54.80
42385;BME280;28042;43.986;22.860;2023-07-13T05:50:10;100994.50;;;34.68;54.60
42385;BME280;28042;43.986;22.860;2023-07-13T05:52:35;101004.41;;;35.23;54.24
42385;BME280;28042;43.986;22.860;2023-07-13T05:55:01;101008.03;;;35.48;53.02
42385;BME280;28042;43.986;22.860;2023-07-13T05:57:26;100983.94;;;35.70;52.25
42385;BME280;28042;43.986;22.860;2023-07-13T05:59:51;101001.03;;;36.30;50.86
42385;BME280;28042;43.986;22.860;2023-07-13T06:02:18;100992.00;;;36.40;49.88
42385;BME280;28042;43.986;22.860;2023-07-13T06:04:43;101002.75;;;36.03;50.15
42385;BME280;28042;43.986;22.860;2023-07-13T06:07:09;100979.28;;;35.78;50.18
42385;BME280;28042;43.986;22.860;2023-07-13T06:09:34;100984.22;;;34.88;52.00
42385;BME280;28042;43.986;22.860;2023-07-13T06:12:00;100982.84;;;34.94;52.25
42385;BME280;28042;43.986;22.860;2023-07-13T06:14:26;100986.34;;;35.16;51.73
42385;BME280;28042;43.986;22.860;2023-07-13T06:16:52;100974.44;;;34.85;52.83
42385;BME280;28042;43.986;22.860;2023-07-13T06:19:17;100978.03;;;34.37;52.97
42385;BME280;28042;43.986;22.860;2023-07-13T06:21:43;101002.78;;;34.61;53.46
42385;BME280;28042;43.986;22.860;2023-07-13T06:24:08;101006.31;;;35.07;52.86
42385;BME280;28042;43.986;22.860;2023-07-13T06:26:34;100991.50;;;35.26;49.67
42385;BME280;28042;43.986;22.860;2023-07-13T06:28:59;100970.09;;;35.40;49.16
42385;BME280;28042;43.986;22.860;2023-07-13T06:31:25;100966.47;;;35.28;49.72
42385;BME280;28042;43.986;22.860;2023-07-13T06:33:50;100985.88;;;35.66;48.41
42385;BME280;28042;43.986;22.860;2023-07-13T06:36:15;100981.59;;;36.00;48.77
42385;BME280;28042;43.986;22.860;2023-07-13T06:38:41;100993.72;;;36.29;47.36
42385;BME280;28042;43.986;22.860;2023-07-13T06:41:07;100983.97;;;35.98;48.56
42385;BME280;28042;43.986;22.860;2023-07-13T06:43:33;100983.91;;;36.26;46.60
42385;BME280;28042;43.986;22.860;2023-07-13T06:45:59;100975.91;;;36.00;45.31
42385;BME280;28042;43.986;22.860;2023-07-13T06:48:25;101005.50;;;35.87;45.05
42385;BME280;28042;43.986;22.860;2023-07-13T06:50:50;100979.31;;;35.37;45.55
42385;BME280;28042;43.986;22.860;2023-07-13T06:53:18;100996.53;;;35.04;46.68
42385;BME280;28042;43.986;22.860;2023-07-13T06:55:44;100993.69;;;35.04;46.82
42385;BME280;28042;43.986;22.860;2023-07-13T06:58:10;100985.66;;;34.70;46.55
42385;BME280;28042;43.986;22.860;2023-07-13T07:00:35;101012.97;;;34.29;47.84
42385;BME280;28042;43.986;22.860;2023-07-13T07:03:01;100998.78;;;34.29;48.28
42385;BME280;28042;43.986;22.860;2023-07-13T07:05:26;100989.81;;;34.15;48.42
42385;BME280;28042;43.986;22.860;2023-07-13T07:07:54;100997.47;;;34.14;48.70
42385;BME280;28042;43.986;22.860;2023-07-13T07:10:20;101016.91;;;34.04;48.44
42385;BME280;28042;43.986;22.860;2023-07-13T07:12:46;101007.06;;;33.68;49.20
42385;BME280;28042;43.986;22.860;2023-07-13T07:15:12;101010.78;;;33.60;50.50
42385;BME280;28042;43.986;22.860;2023-07-13T07:17:38;101013.22;;;33.49;50.17
42385;BME280;28042;43.986;22.860;2023-07-13T07:20:03;101040.75;;;33.82;50.33
42385;BME280;28042;43.986;22.860;2023-07-13T07:22:29;101039.25;;;33.63;48.42
42385;BME280;28042;43.986;22.860;2023-07-13T07:24:56;101057.69;;;33.19;49.75
42385;BME280;28042;43.986;22.860;2023-07-13T07:27:22;101051.31;;;33.22;49.92
42385;BME280;28042;43.986;22.860;2023-07-13T07:29:47;101033.19;;;33.23;50.98
42385;BME280;28042;43.986;22.860;2023-07-13T07:32:13;101049.09;;;33.57;50.41
42385;BME280;28042;43.986;22.860;2023-07-13T07:34:38;101052.00;;;33.49;50.90
42385;BME280;28042;43.986;22.860;2023-07-13T07:37:04;101035.63;;;33.04;51.94
42385;BME280;28042;43.986;22.860;2023-07-13T07:39:30;101034.09;;;32.85;53.13
42385;BME280;28042;43.986;22.860;2023-07-13T07:41:55;101050.41;;;32.71;53.51
42385;BME280;28042;43.986;22.860;2023-07-13T07:44:21;101049.00;;;32.95;52.33
42385;BME280;28042;43.986;22.860;2023-07-13T07:46:46;101033.47;;;33.01;51.03
42385;BME280;28042;43.986;22.860;2023-07-13T07:49:12;101048.56;;;33.34;50.28
42385;BME280;28042;43.986;22.860;2023-07-13T07:51:37;101053.66;;;33.50;49.59
42385;BME280;28042;43.986;22.860;2023-07-13T07:54:05;101026.81;;;33.56;48.24
42385;BME280;28042;43.986;22.860;2023-07-13T07:56:31;101045.72;;;33.64;47.76
42385;BME280;28042;43.986;22.860;2023-07-13T07:58:57;101044.88;;;33.84;48.21
42385;BME280;28042;43.986;22.860;2023-07-13T08:01:23;101016.03;;;33.70;46.98
42385;BME280;28042;43.986;22.860;2023-07-13T08:03:48;101033.50;;;33.93;46.05
42385;BME280;28042;43.986;22.860;2023-07-13T08:06:14;101012.69;;;34.10;45.64
42385;BME280;28042;43.986;22.860;2023-07-13T08:08:40;101030.97;;;34.45;45.44
42385;BME280;28042;43.986;22.860;2023-07-13T08:11:06;101004.91;;;34.19;45.84
42385;BME280;28042;43.986;22.860;2023-07-13T08:13:32;101007.25;;;34.50;45.42
42385;BME280;28042;43.986;22.860;2023-07-13T08:15:58;101026.75;;;34.88;46.39
42385;BME280;28042;43.986;22.860;2023-07-13T08:18:24;101019.56;;;35.15;44.16
42385;BME280;28042;43.986;22.860;2023-07-13T08:20:50;101016.63;;;35.11;44.41
42385;BME280;28042;43.986;22.860;2023-07-13T08:23:15;101021.09;;;35.12;44.68
42385;BME280;28042;43.986;22.860;2023-07-13T08:25:42;101017.16;;;35.29;43.91
42385;BME280;28042;43.986;22.860;2023-07-13T08:28:07;101017.03;;;35.38;43.82
42385;BME280;28042;43.986;22.860;2023-07-13T08:30:33;101013.44;;;35.53;42.81
42385;BME280;28042;43.986;22.860;2023-07-13T08:32:59;100988.41;;;35.43;41.38
42385;BME280;28042;43.986;22.860;2023-07-13T08:35:24;101013.38;;;35.78;41.58
42385;BME280;28042;43.986;22.860;2023-07-13T08:37:51;101011.56;;;35.57;41.58
42385;BME280;28042;43.986;22.860;2023-07-13T08:40:17;101011.13;;;35.43;42.09
42385;BME280;28042;43.986;22.860;2023-07-13T08:42:54;100991.63;;;35.69;41.48
42385;BME280;28042;43.986;22.860;2023-07-13T08:48:04;101012.56;;;36.05;41.57
42385;BME280;28042;43.986;22.860;2023-07-13T08:50:34;101006.16;;;36.08;41.87
42385;BME280;28042;43.986;22.860;2023-07-13T08:53:02;100977.34;;;35.94;42.61
42385;BME280;28042;43.986;22.860;2023-07-13T08:55:35;100980.50;;;36.20;43.97
42385;BME280;28042;43.986;22.860;2023-07-13T08:58:15;100987.31;;;36.32;43.14
42385;BME280;28042;43.986;22.860;2023-07-13T09:00:56;100978.06;;;36.35;42.30
42385;BME280;28042;43.986;22.860;2023-07-13T09:03:30;100979.97;;;36.31;42.84
42385;BME280;28042;43.986;22.860;2023-07-13T09:05:59;100975.44;;;36.42;42.45
42385;BME280;28042;43.986;22.860;2023-07-13T09:08:36;100976.78;;;36.32;42.30
42385;BME280;28042;43.986;22.860;2023-07-13T09:16:42;100979.59;;;36.79;41.40
42385;BME280;28042;43.986;22.860;2023-07-13T09:19:16;100983.47;;;37.03;40.50
42385;BME280;28042;43.986;22.860;2023-07-13T09:21:45;100984.53;;;37.14;39.25
42385;BME280;28042;43.986;22.860;2023-07-13T09:26:58;100983.94;;;36.89;37.29
42385;BME280;28042;43.986;22.860;2023-07-13T09:29:29;100977.00;;;37.06;38.17
42385;BME280;28042;43.986;22.860;2023-07-13T09:31:57;100961.75;;;37.14;37.53
42385;BME280;28042;43.986;22.860;2023-07-13T09:34:25;100970.06;;;37.39;36.74
42385;BME280;28042;43.986;22.860;2023-07-13T09:36:51;100960.63;;;37.54;36.91
42385;BME280;28042;43.986;22.860;2023-07-13T09:39:31;100938.59;;;37.31;32.75
42385;BME280;28042;43.986;22.860;2023-07-13T09:42:14;100949.59;;;37.52;32.98
42385;BME280;28042;43.986;22.860;2023-07-13T09:47:17;100930.75;;;37.86;32.21
42385;BME280;28042;43.986;22.860;2023-07-13T09:49:43;100898.69;;;37.89;31.09
42385;BME280;28042;43.986;22.860;2023-07-13T09:52:15;100914.63;;;37.94;31.16
42385;BME280;28042;43.986;22.860;2023-07-13T09:54:44;100920.59;;;37.66;31.28
42385;BME280;28042;43.986;22.860;2023-07-13T09:57:15;100916.91;;;37.66;29.57
42385;BME280;28042;43.986;22.860;2023-07-13T09:59:49;100921.34;;;37.44;30.04
42385;BME280;28042;43.986;22.860;2023-07-13T10:02:34;100904.72;;;37.46;28.60
42385;BME280;28042;43.986;22.860;2023-07-13T10:05:14;100882.84;;;37.50;29.71
42385;BME280;28042;43.986;22.860;2023-07-13T10:07:43;100886.44;;;37.27;28.04
42385;BME280;28042;43.986;22.860;2023-07-13T10:10:15;100881.47;;;37.24;29.40
42385;BME280;28042;43.986;22.860;2023-07-13T10:12:43;100890.19;;;37.51;29.20
42385;BME280;28042;43.986;22.860;2023-07-13T10:15:20;100878.63;;;37.44;29.62
42385;BME280;28042;43.986;22.860;2023-07-13T10:17:47;100902.00;;;37.72;28.23
42385;BME280;28042;43.986;22.860;2023-07-13T10:20:14;100895.44;;;37.49;27.58
42385;BME280;28042;43.986;22.860;2023-07-13T10:23:05;100860.31;;;37.41;28.94
42385;BME280;28042;43.986;22.860;2023-07-13T10:25:39;100887.28;;;37.70;28.42
42385;BME280;28042;43.986;22.860;2023-07-13T10:28:20;100885.31;;;37.51;28.42
42385;BME280;28042;43.986;22.860;2023-07-13T10:30:47;100872.00;;;37.78;27.92
42385;BME280;28042;43.986;22.860;2023-07-13T10:33:14;100856.69;;;37.86;28.08
42385;BME280;28042;43.986;22.860;2023-07-13T10:35:42;100864.72;;;38.04;28.03
42385;BME280;28042;43.986;22.860;2023-07-13T10:38:14;100861.16;;;38.07;27.73
42385;BME280;28042;43.986;22.860;2023-07-13T10:40:58;100870.00;;;38.02;28.02
42385;BME280;28042;43.986;22.860;2023-07-13T10:43:25;100869.03;;;38.17;27.55
42385;BME280;28042;43.986;22.860;2023-07-13T10:45:54;100845.78;;;38.38;26.81
42385;BME280;28042;43.986;22.860;2023-07-13T10:48:20;100866.94;;;38.63;26.73
42385;BME280;28042;43.986;22.860;2023-07-13T10:50:49;100869.22;;;38.77;26.45
42385;BME280;28042;43.986;22.860;2023-07-13T10:53:22;100856.53;;;38.74;26.15
42385;BME280;28042;43.986;22.860;2023-07-13T10:58:19;100856.44;;;38.97;26.29
42385;BME280;28042;43.986;22.860;2023-07-13T11:03:34;100861.16;;;39.13;26.29
42385;BME280;28042;43.986;22.860;2023-07-13T11:06:14;100840.53;;;38.96;24.09
42385;BME280;28042;43.986;22.860;2023-07-13T11:18:53;100854.03;;;39.67;24.14
42385;BME280;28042;43.986;22.860;2023-07-13T11:21:33;100832.63;;;39.50;24.27
42385;BME280;28042;43.986;22.860;2023-07-13T11:24:04;100852.66;;;39.53;22.13
42385;BME280;28042;43.986;22.860;2023-07-13T11:29:37;100848.16;;;39.93;22.82
42385;BME280;28042;43.986;22.860;2023-07-13T11:32:23;100838.38;;;39.53;23.49
42385;BME280;28042;43.986;22.860;2023-07-13T11:34:49;100838.13;;;39.69;23.62
42385;BME280;28042;43.986;22.860;2023-07-13T11:37:16;100832.41;;;39.66;23.53
42385;BME280;28042;43.986;22.860;2023-07-13T11:39:44;100835.59;;;39.61;24.44
42385;BME280;28042;43.986;22.860;2023-07-13T11:42:13;100817.03;;;39.40;24.59
42385;BME280;28042;43.986;22.860;2023-07-13T11:44:47;100823.63;;;39.48;23.47
42385;BME280;28042;43.986;22.860;2023-07-13T11:47:21;100837.78;;;39.71;22.71
42385;BME280;28042;43.986;22.860;2023-07-13T11:49:54;100842.88;;;39.54;23.73
42385;BME280;28042;43.986;22.860;2023-07-13T11:52:32;100838.66;;;39.41;23.75
42385;BME280;28042;43.986;22.860;2023-07-13T11:55:00;100834.03;;;39.67;23.95
42385;BME280;28042;43.986;22.860;2023-07-13T11:57:36;100829.91;;;39.61;23.73
42385;BME280;28042;43.986;22.860;2023-07-13T12:00:13;100814.41;;;39.62;23.39
42385;BME280;28042;43.986;22.860;2023-07-13T12:02:46;100825.81;;;39.62;23.34
42385;BME280;28042;43.986;22.860;2023-07-13T12:05:14;100827.03;;;39.61;23.38
42385;BME280;28042;43.986;22.860;2023-07-13T12:07:40;100825.69;;;39.51;23.78
42385;BME280;28042;43.986;22.860;2023-07-13T12:12:35;100818.53;;;39.68;24.30
42385;BME280;28042;43.986;22.860;2023-07-13T12:15:05;100814.25;;;39.51;24.45
42385;BME280;28042;43.986;22.860;2023-07-13T12:17:51;100814.66;;;39.49;24.44
42385;BME280;28042;43.986;22.860;2023-07-13T12:20:27;100806.38;;;39.78;24.79
42385;BME280;28042;43.986;22.860;2023-07-13T12:22:55;100810.41;;;39.70;24.51
42385;BME280;28042;43.986;22.860;2023-07-13T12:25:28;100786.63;;;39.59;24.63
42385;BME280;28042;43.986;22.860;2023-07-13T12:27:55;100804.22;;;40.08;24.84
42385;BME280;28042;43.986;22.860;2023-07-13T12:33:07;100802.38;;;39.86;24.39
42385;BME280;28042;43.986;22.860;2023-07-13T12:35:46;100804.31;;;39.71;24.04
42385;BME280;28042;43.986;22.860;2023-07-13T12:38:13;100787.59;;;39.77;23.78
42385;BME280;28042;43.986;22.860;2023-07-13T12:40:40;100803.19;;;39.87;24.17
42385;BME280;28042;43.986;22.860;2023-07-13T12:43:11;100792.84;;;39.68;24.11
42385;BME280;28042;43.986;22.860;2023-07-13T12:45:38;100790.84;;;39.35;23.62
42385;BME280;28042;43.986;22.860;2023-07-13T12:48:10;100784.88;;;39.50;23.88
42385;BME280;28042;43.986;22.860;2023-07-13T12:50:42;100776.69;;;39.45;24.33
42385;BME280;28042;43.986;22.860;2023-07-13T12:53:13;100784.88;;;39.50;24.72
42385;BME280;28042;43.986;22.860;2023-07-13T12:55:48;100781.34;;;39.61;22.22
42385;BME280;28042;43.986;22.860;2023-07-13T12:58:22;100783.34;;;39.56;22.35
42385;BME280;28042;43.986;22.860;2023-07-13T13:00:51;100782.63;;;39.67;22.85
42385;BME280;28042;43.986;22.860;2023-07-13T13:03:22;100779.34;;;39.65;23.35
42385;BME280;28042;43.986;22.860;2023-07-13T13:05:49;100773.31;;;39.77;23.13
42385;BME280;28042;43.986;22.860;2023-07-13T13:08:15;100778.19;;;39.73;23.29
42385;BME280;28042;43.986;22.860;2023-07-13T13:10:40;100749.06;;;39.56;23.63
42385;BME280;28042;43.986;22.860;2023-07-13T13:13:06;100747.38;;;39.52;23.78
42385;BME280;28042;43.986;22.860;2023-07-13T13:15:31;100750.28;;;39.55;23.52
42385;BME280;28042;43.986;22.860;2023-07-13T13:17:58;100765.41;;;39.60;21.97
42385;BME280;28042;43.986;22.860;2023-07-13T13:20:24;100764.72;;;39.73;22.03
42385;BME280;28042;43.986;22.860;2023-07-13T13:22:51;100746.03;;;39.83;22.36